EKEBEKRK

Guest
Details From EKEB - Esbjerg
To EKRK - Copenhagen Roskilde INT
Flight Number -
Tags generated
Created
Modified
Stats Distance 122 nm / 225 km
Max Altitude 9,700 ft / 2,957 m
Waypoints 4
Social Downloads 0
Likes 0
Share VATSIM

Download

Looking for another format? Having issues loading an existing format? Contact us
Advertisement - Login to hide

Notes

Basic altitude profile: - Ascent Rate: 2500ft/min - Ascent Speed: 250kts - Cruise Altitude: 35000ft - Cruise Speed: 420kts - Descent Rate: 1500ft/min - Descent Speed: 250kts Options: - Use NATs: yes - Use PACOTS: yes - Use low airways: yes - Use high airways: yes

Route

EKEB ODN T507 DOBEL EKRK

ID Type Via Altitude Latitude Longitude Leg Dist Tot Dist Heading (true) Name
O EKEB APT - 0 ft / 0 m 55.52599˚ 8.55372˚ - 0 nm - Esbjerg
ODN VOR - 9,700 ft / 2,957 m 55.58101˚ 10.65299˚ 71 nm 71 nm 86° / 88° ODIN VOR-DME
DOBEL FIX T507 (AWY-LO) 5,300 ft / 1,615 m 55.60608˚ 11.38993˚ 25 nm 96 nm 86° / 87° -
O EKRK APT - 0 ft / 0 m 55.58530˚ 12.12918˚ 25 nm 121 nm 93° / 93° Copenhagen Roskilde INT

Altitude Profile

Advertisement - Login to hide

EKEB

Details ICAO EKEB (EBJ)
Name Esbjerg
Region Denmark / Faroe Islands
Timezone Europe/Copenhagen (UTC+1.0)
Stats Elevation 97 ft / 30 m (AMSL)
Location 55.525990° 8.553721°
Runways 1
Magnetic Variation 2.311° E

METAR

EKEB 152150Z AUTO 27005KT 9999NDV NCD 01/M02 Q0997

Decode

TAF

Not found

Departure Runways

ID Width Length Bearing (true) Bearing (mag) Surface Threshold Offset Overrun Length
08 148 ft / 45 m 8,534 ft / 2,601 m 79.45° 77.14° Asphalt 0 ft / 0 m 0 ft / 0 m
26 148 ft / 45 m 8,534 ft / 2,601 m 259.49° 257.18° Asphalt 0 ft / 0 m 0 ft / 0 m

EKRK

Details ICAO EKRK (RKE)
Name Copenhagen Roskilde INT
Region Denmark / Faroe Islands
Timezone Europe/Copenhagen (UTC+1.0)
Stats Elevation 146 ft / 45 m (AMSL)
Location 55.585296° 12.129176°
Runways 2
Magnetic Variation 3.550° E

METAR

EKRK 152150Z AUTO 26005KT 2000NDV BR BKN001/// OVC004/// 01/01 Q0996

Decode

TAF

Not found

Destination Runways

ID Width Length Bearing (true) Bearing (mag) Surface Threshold Offset Overrun Length
03 105 ft / 32 m 4,926 ft / 1,501 m 30.86° 27.31° Asphalt 0 ft / 0 m 0 ft / 0 m
11 105 ft / 32 m 5,908 ft / 1,801 m 116.31° 112.76° Asphalt 0 ft / 0 m 0 ft / 0 m
21 105 ft / 32 m 4,926 ft / 1,501 m 210.88° 207.33° Asphalt 0 ft / 0 m 0 ft / 0 m
29 105 ft / 32 m 5,908 ft / 1,801 m 296.33° 292.78° Asphalt 194 ft / 59 m 0 ft / 0 m

Approach Navaids

Runway Type Ident Frequency Range Bearing (true) Bearing (mag) Slope Elevation
11 Localiser KV 111.50 MHz 18 nm / 33 km 116.32° 112.77° - 146 ft / 45 m (AMSL)
11 Glidescope KV 111.50 MHz 10 nm / 19 km 116.32° 112.77° 3.00° 146 ft / 45 m (AMSL)
11 DME KV 111.50 MHz 18 nm / 33 km - - - 140 ft / 43 m (AMSL)
21 Localiser SN 108.70 MHz 18 nm / 33 km 210.86° 207.31° - 146 ft / 45 m (AMSL)
21 Glidescope SN 108.70 MHz 10 nm / 19 km 210.87° 207.32° 3.00° 146 ft / 45 m (AMSL)